Terminal Aerodrome Forecast
Issued by NWS

Current Version | Previous Version | Text Only | Print | Product List | Glossary Off
Versions: 1 2 3 4 5 6 7 8 9 10 11 12 13 14 15 16 17 18 19 20 21 22 23 24 25

000
FTUS41 KILN 291800 AAA
TAFLCK
TAF AMD
KLCK 291858Z 2919/3018 12005KT P6SM VCSH OVC018
      TEMPO 2919/2923 5SM SHRA BR BKN008 OVC015
     FM300000 16012KT P6SM VCSH BKN035
     FM300400 23010KT P6SM BKN035
     FM301400 23010KT P6SM VCSH BKN040=

USA.gov is the U.S. government's official web portal to all federal, state and local government web resources and services.